Time;durP1;ratioP1;P1;durP2;ratioP2;P2;SDS_P1;SDS_P2;PMS_P1;PMS_P2;Temp;Humidity;BMP_temperature;BMP_pressure;BME280_temperature;BME280_humidity;BME280_pressure;Samples;Min_cycle;Max_cycle;Signal;HPM_P1;HPM_P2
2023/08/28 00:01:12;;;;;;;6.60;4.53;;;;;;;11.62;100.00;101027.50;5225405;23;20075;-85
2023/08/28 00:03:37;;;;;;;5.53;4.10;;;;;;;11.56;100.00;101015.66;4885229;29;20485;-90
2023/08/28 00:06:03;;;;;;;6.57;4.50;;;;;;;11.59;100.00;101010.59;4902131;29;20074;-88
2023/08/28 00:08:28;;;;;;;6.93;4.53;;;;;;;11.57;100.00;101010.00;4901822;29;20036;-88
2023/08/28 00:10:54;;;;;;;6.30;4.63;;;;;;;11.55;100.00;101012.09;4919019;29;20032;-88
2023/08/28 00:13:21;;;;;;;5.22;4.30;;;;;;;11.57;100.00;101014.56;4918858;29;20035;-89
2023/08/28 00:15:47;;;;;;;7.63;4.75;;;;;;;11.54;100.00;101013.13;4918868;29;20043;-88
2023/08/28 00:18:12;;;;;;;5.27;4.50;;;;;;;11.53;100.00;101008.75;4901812;29;20477;-89
2023/08/28 00:20:38;;;;;;;5.07;4.63;;;;;;;11.53;100.00;101014.19;4901822;29;20107;-89
2023/08/28 00:23:04;;;;;;;7.72;4.55;;;;;;;11.49;100.00;101004.81;4918442;29;20028;-89
2023/08/28 00:25:29;;;;;;;8.73;4.53;;;;;;;11.46;100.00;101007.97;4901834;29;20109;-88
2023/08/28 00:27:55;;;;;;;6.03;4.93;;;;;;;11.45;100.00;100994.59;4901716;29;20525;-89
2023/08/28 00:30:22;;;;;;;8.10;4.33;;;;;;;11.45;100.00;100995.41;4901620;29;20028;-88
2023/08/28 00:32:48;;;;;;;5.20;4.38;;;;;;;11.45;100.00;101002.75;4901454;29;20028;-87
2023/08/28 00:35:14;;;;;;;5.10;4.47;;;;;;;11.44;100.00;101001.91;4919015;29;20028;-89
2023/08/28 00:37:40;;;;;;;10.33;4.70;;;;;;;11.44;100.00;101001.06;4886187;29;20338;-89
2023/08/28 00:40:07;;;;;;;5.45;4.95;;;;;;;11.43;100.00;100999.41;4901149;29;20032;-89
2023/08/28 00:42:32;;;;;;;7.85;4.78;;;;;;;11.43;100.00;100993.97;4902184;29;20036;-88
2023/08/28 00:44:58;;;;;;;5.50;4.97;;;;;;;11.39;100.00;100990.84;4901430;29;20032;-89
2023/08/28 00:47:24;;;;;;;6.87;4.73;;;;;;;11.34;100.00;100994.22;4901283;29;20067;-89
2023/08/28 00:49:52;;;;;;;8.32;4.75;;;;;;;11.31;100.00;100988.38;4901202;29;20388;-88
2023/08/28 00:52:18;;;;;;;6.68;4.82;;;;;;;11.31;100.00;100996.53;4901912;29;20453;-89
2023/08/28 00:54:43;;;;;;;8.33;5.27;;;;;;;11.29;100.00;100996.75;4885351;29;20096;-88
2023/08/28 00:57:09;;;;;;;7.33;5.53;;;;;;;11.26;100.00;100999.06;4917940;29;20483;-89
2023/08/28 00:59:38;;;;;;;6.77;5.07;;;;;;;11.29;100.00;100991.31;4901354;29;20312;-89
2023/08/28 01:02:04;;;;;;;8.38;5.43;;;;;;;11.29;100.00;100994.03;4895558;29;20079;-89
2023/08/28 01:04:31;;;;;;;6.90;5.20;;;;;;;11.27;100.00;101000.75;4917835;29;20523;-89
2023/08/28 01:07:32;;;;;;;8.68;5.70;;;;;;;11.26;100.00;100993.66;4918200;29;20548;-88
2023/08/28 01:10:11;;;;;;;9.10;5.40;;;;;;;11.22;100.00;100994.06;4835151;29;20049;-89
2023/08/28 01:12:48;;;;;;;8.70;6.07;;;;;;;11.21;100.00;101000.56;4901455;29;20024;-90
2023/08/28 01:15:20;;;;;;;8.90;5.53;;;;;;;11.20;100.00;101004.31;4900994;29;20032;-88
2023/08/28 01:17:57;;;;;;;8.17;5.70;;;;;;;11.15;100.00;101009.56;4901792;29;20521;-89
2023/08/28 01:20:26;;;;;;;7.55;5.55;;;;;;;11.09;100.00;101006.88;4901640;29;20032;-89
2023/08/28 01:22:57;;;;;;;8.20;5.47;;;;;;;11.03;100.00;101003.16;4900942;29;20539;-89
2023/08/28 01:25:28;;;;;;;9.32;6.38;;;;;;;10.99;100.00;100993.75;4900499;29;20067;-89
2023/08/28 01:27:55;;;;;;;8.68;6.40;;;;;;;10.96;100.00;100986.06;4902026;29;20047;-89
2023/08/28 01:30:23;;;;;;;6.77;5.73;;;;;;;10.96;100.00;100991.47;4901198;29;20055;-89
2023/08/28 01:32:48;;;;;;;9.77;6.38;;;;;;;10.98;100.00;100987.47;4900583;29;20095;-88
2023/08/28 01:35:20;;;;;;;11.57;6.60;;;;;;;10.96;100.00;100989.59;4900366;29;20481;-89
2023/08/28 01:38:04;;;;;;;8.30;6.47;;;;;;;10.95;100.00;100989.81;4917562;29;20284;-88
2023/08/28 01:40:44;;;;;;;12.25;6.47;;;;;;;10.88;100.00;100982.53;4917764;29;20036;-88
2023/08/28 01:43:12;;;;;;;11.48;7.20;;;;;;;10.87;100.00;100975.41;4900490;29;20032;-88
2023/08/28 01:45:39;;;;;;;9.23;6.78;;;;;;;10.86;100.00;100973.75;4900364;29;20069;-89
2023/08/28 01:48:06;;;;;;;8.57;6.97;;;;;;;10.87;100.00;100974.59;4900101;29;20032;-89
2023/08/28 01:50:31;;;;;;;9.23;7.20;;;;;;;10.84;100.00;100965.00;4905763;29;20036;-88
2023/08/28 01:52:57;;;;;;;11.23;7.78;;;;;;;10.82;100.00;100967.09;4906612;29;20039;-89
2023/08/28 01:55:44;;;;;;;9.93;6.87;;;;;;;10.83;100.00;100971.44;4906672;29;20043;-89
2023/08/28 01:58:10;;;;;;;9.32;7.22;;;;;;;10.79;100.00;100972.09;4906742;29;20564;-89
2023/08/28 02:00:35;;;;;;;9.03;7.00;;;;;;;10.79;100.00;100970.25;4890804;29;20131;-90
2023/08/28 02:03:03;;;;;;;10.02;7.07;;;;;;;10.77;100.00;100966.06;4875635;29;20060;-89
2023/08/28 02:05:28;;;;;;;12.10;7.43;;;;;;;10.74;100.00;100961.88;4907531;29;20087;-89
2023/08/28 02:07:54;;;;;;;9.15;7.72;;;;;;;10.77;100.00;100960.63;4891743;29;20032;-89
2023/08/28 02:10:19;;;;;;;9.90;8.07;;;;;;;10.71;100.00;100956.91;4890939;29;20397;-89
2023/08/28 02:12:47;;;;;;;12.30;7.30;;;;;;;10.70;100.00;100945.22;4906626;29;20040;-90
2023/08/28 02:15:13;;;;;;;13.18;8.02;;;;;;;10.69;100.00;100948.16;4899008;29;20064;-89
2023/08/28 02:17:39;;;;;;;10.10;7.18;;;;;;;10.65;100.00;100949.63;4906222;29;20070;-89
2023/08/28 02:20:05;;;;;;;10.47;7.63;;;;;;;10.61;100.00;100949.19;4905997;29;20035;-88
2023/08/28 02:22:33;;;;;;;8.63;7.10;;;;;;;10.58;100.00;100952.31;4905951;29;20039;-88
2023/08/28 02:25:01;;;;;;;9.40;7.53;;;;;;;10.57;100.00;100958.81;4906064;29;20024;-89
2023/08/28 02:27:27;;;;;;;12.73;8.45;;;;;;;10.56;100.00;100968.00;4906475;29;20466;-89
2023/08/28 02:29:52;;;;;;;10.57;8.07;;;;;;;10.52;100.00;100964.03;4906222;29;20055;-88
2023/08/28 02:32:20;;;;;;;13.67;8.57;;;;;;;10.55;100.00;100970.94;4923535;29;20487;-88
2023/08/28 02:34:46;;;;;;;14.98;8.43;;;;;;;10.53;100.00;100963.00;4906306;29;20079;-89
2023/08/28 02:37:14;;;;;;;9.43;7.57;;;;;;;10.56;100.00;100964.47;4906091;29;20112;-88
2023/08/28 02:39:39;;;;;;;13.00;8.50;;;;;;;10.53;100.00;100966.53;4891389;29;20036;-89
2023/08/28 02:42:08;;;;;;;13.27;8.37;;;;;;;10.51;100.00;100960.50;4890557;29;20040;-89
2023/08/28 02:44:33;;;;;;;11.57;8.65;;;;;;;10.48;100.00;100960.94;4906498;29;20119;-88
2023/08/28 02:46:58;;;;;;;14.17;8.67;;;;;;;10.47;100.00;100966.56;4905639;29;20090;-89
2023/08/28 02:49:27;;;;;;;12.18;9.07;;;;;;;10.41;100.00;100959.25;4905920;29;20028;-88
2023/08/28 02:51:52;;;;;;;11.73;8.47;;;;;;;10.41;100.00;100976.38;4906891;29;20043;-88
2023/08/28 02:54:17;;;;;;;13.82;8.57;;;;;;;10.40;100.00;100973.88;4922928;29;20429;-88
2023/08/28 02:56:43;;;;;;;12.53;8.90;;;;;;;10.38;100.00;100968.66;4906566;29;20039;-89
2023/08/28 02:59:11;;;;;;;11.73;8.50;;;;;;;10.41;100.00;100970.09;4890624;29;20493;-88
2023/08/28 03:01:39;;;;;;;15.18;9.77;;;;;;;10.44;100.00;100980.56;4886963;29;20058;-89
2023/08/28 03:04:05;;;;;;;14.55;9.48;;;;;;;10.47;100.00;100988.28;4920105;29;20032;-89
2023/08/28 03:06:39;;;;;;;12.00;9.23;;;;;;;10.42;100.00;100979.91;4903889;29;20533;-88
2023/08/28 03:09:08;;;;;;;11.48;8.73;;;;;;;10.40;100.00;100982.84;4886920;29;20036;-88
2023/08/28 03:11:36;;;;;;;17.73;10.10;;;;;;;10.40;100.00;100988.25;4920220;29;20032;-89
2023/08/28 03:14:02;;;;;;;13.98;9.88;;;;;;;10.41;100.00;100994.50;4887706;29;20080;-89
2023/08/28 03:16:28;;;;;;;16.52;10.05;;;;;;;10.41;100.00;100981.81;4902846;29;20110;-89
2023/08/28 03:18:53;;;;;;;14.63;9.73;;;;;;;10.46;100.00;100995.56;4902608;29;20039;-88
2023/08/28 03:21:19;;;;;;;15.87;10.30;;;;;;;10.49;100.00;100992.41;4902812;29;20039;-88
2023/08/28 03:23:44;;;;;;;16.07;9.83;;;;;;;10.53;100.00;100985.53;4902501;29;20059;-89
2023/08/28 03:26:10;;;;;;;15.73;11.10;;;;;;;10.60;100.00;100992.81;4903033;29;20055;-88
2023/08/28 03:28:35;;;;;;;16.43;10.33;;;;;;;10.65;100.00;100987.59;4902907;29;20488;-88
2023/08/28 03:31:01;;;;;;;15.67;10.40;;;;;;;10.71;100.00;100993.00;4919701;29;20024;-88
2023/08/28 03:33:27;;;;;;;15.38;10.18;;;;;;;10.78;100.00;100990.28;4903193;29;20036;-88
2023/08/28 03:35:53;;;;;;;14.75;10.95;;;;;;;10.88;100.00;100992.56;4919550;29;20028;-88
2023/08/28 03:38:19;;;;;;;16.90;10.60;;;;;;;10.92;100.00;100999.19;4902802;29;20132;-88
2023/08/28 03:40:48;;;;;;;15.38;11.07;;;;;;;10.96;100.00;100996.91;4902231;29;20091;-89
2023/08/28 03:43:25;;;;;;;14.27;9.93;;;;;;;11.00;100.00;101011.72;4902690;29;20055;-88
2023/08/28 03:45:52;;;;;;;15.27;10.35;;;;;;;11.03;100.00;101008.59;4919757;29;20099;-89
2023/08/28 03:48:21;;;;;;;18.33;10.38;;;;;;;11.06;100.00;101008.16;4902045;29;20139;-88
2023/08/28 03:50:50;;;;;;;12.85;9.90;;;;;;;11.06;100.00;101008.97;4902381;29;20501;-88
2023/08/28 03:53:15;;;;;;;18.05;10.40;;;;;;;11.10;100.00;101014.81;4903056;29;20349;-88
2023/08/28 03:55:44;;;;;;;12.47;9.90;;;;;;;11.10;100.00;101013.97;4902616;29;20036;-88
2023/08/28 03:58:09;;;;;;;15.55;9.90;;;;;;;11.13;100.00;101018.97;4902190;29;20374;-88
2023/08/28 04:00:39;;;;;;;16.30;10.33;;;;;;;11.15;100.00;101033.19;4902183;29;20035;-89
2023/08/28 04:03:07;;;;;;;13.88;10.05;;;;;;;11.20;100.00;101033.34;4901804;29;20075;-88
2023/08/28 04:05:38;;;;;;;13.73;9.55;;;;;;;11.24;100.00;101034.59;4901765;29;20493;-87
2023/08/28 04:08:05;;;;;;;15.52;10.05;;;;;;;11.29;100.00;101034.78;4902297;29;20568;-88
2023/08/28 04:10:38;;;;;;;19.17;10.20;;;;;;;11.35;100.00;101036.66;4901706;29;20040;-88
2023/08/28 04:13:05;;;;;;;14.23;10.40;;;;;;;11.35;100.00;101033.09;4918569;29;20485;-88
2023/08/28 04:15:33;;;;;;;15.73;10.65;;;;;;;11.38;100.00;101029.94;4919649;29;20501;-88
2023/08/28 04:18:01;;;;;;;14.85;11.10;;;;;;;11.40;100.00;101036.00;4918974;29;20088;-88
2023/08/28 04:20:30;;;;;;;14.30;10.13;;;;;;;11.46;100.00;101039.75;4918780;29;20067;-88
2023/08/28 04:22:55;;;;;;;21.55;11.20;;;;;;;11.48;100.00;101040.34;4886437;29;20381;-88
2023/08/28 04:25:24;;;;;;;20.63;11.10;;;;;;;11.49;100.00;101029.25;4901405;29;20032;-88
2023/08/28 04:27:49;;;;;;;17.58;10.55;;;;;;;11.54;100.00;101036.75;4902097;29;20051;-88
2023/08/28 04:30:15;;;;;;;14.67;10.37;;;;;;;11.56;100.00;101040.94;4901324;29;20033;-89
2023/08/28 04:32:43;;;;;;;14.87;11.47;;;;;;;11.59;100.00;101034.22;4901216;29;20036;-88
2023/08/28 04:35:11;;;;;;;16.15;11.05;;;;;;;11.63;100.00;101027.28;4901148;29;20126;-88
2023/08/28 04:37:39;;;;;;;13.40;10.07;;;;;;;11.65;100.00;101038.78;4901740;29;20032;-88
2023/08/28 04:40:08;;;;;;;15.40;11.18;;;;;;;11.71;100.00;101046.06;4901147;29;20032;-88
2023/08/28 04:42:33;;;;;;;16.33;10.63;;;;;;;11.73;100.00;101045.84;4870360;29;20492;-88
2023/08/28 04:44:59;;;;;;;15.33;10.80;;;;;;;11.74;100.00;101033.94;4918247;29;20024;-89
2023/08/28 04:47:25;;;;;;;15.40;10.20;;;;;;;11.78;100.00;101046.03;4900927;29;20032;-87
2023/08/28 04:49:52;;;;;;;12.68;10.15;;;;;;;11.81;100.00;101042.03;4900745;29;20397;-88
2023/08/28 04:52:19;;;;;;;20.42;10.68;;;;;;;11.83;100.00;101035.34;4901450;29;20479;-88
2023/08/28 04:54:45;;;;;;;12.67;9.77;;;;;;;11.85;100.00;101026.97;4885569;29;20036;-88
2023/08/28 04:57:10;;;;;;;14.35;9.75;;;;;;;11.85;100.00;101024.25;4917739;29;20492;-87
2023/08/28 04:59:36;;;;;;;17.67;10.37;;;;;;;11.87;100.00;101022.13;4885300;29;20127;-88
2023/08/28 05:02:01;;;;;;;14.90;9.47;;;;;;;11.89;100.00;101026.28;4885282;29;20188;-88
2023/08/28 05:04:34;;;;;;;17.38;9.38;;;;;;;11.90;100.00;101027.16;4885420;29;20032;-88
2023/08/28 05:07:03;;;;;;;14.68;9.05;;;;;;;11.90;100.00;101013.56;4900751;29;20127;-88
2023/08/28 05:09:28;;;;;;;13.03;9.20;;;;;;;11.96;100.00;101012.69;4884793;29;20047;-88
2023/08/28 05:11:58;;;;;;;12.98;9.98;;;;;;;12.00;100.00;101013.94;4900642;29;20036;-88
2023/08/28 05:14:26;;;;;;;13.17;9.23;;;;;;;12.05;100.00;101010.53;4885262;29;20039;-88
2023/08/28 05:16:52;;;;;;;10.65;9.40;;;;;;;12.09;100.00;101020.75;4918011;29;20047;-89
2023/08/28 05:19:17;;;;;;;15.82;9.73;;;;;;;12.18;100.00;101017.75;4900655;29;20040;-89
2023/08/28 05:21:45;;;;;;;10.23;8.73;;;;;;;12.23;100.00;101024.19;4900445;29;20028;-88
2023/08/28 05:24:12;;;;;;;11.70;9.13;;;;;;;12.25;100.00;101027.53;4899549;29;20532;-88
2023/08/28 05:26:40;;;;;;;10.77;8.30;;;;;;;12.29;100.00;101014.31;4900887;29;20561;-88
2023/08/28 05:29:05;;;;;;;15.40;9.35;;;;;;;12.34;100.00;101017.22;4900664;29;20044;-90
2023/08/28 05:31:31;;;;;;;12.20;8.60;;;;;;;12.42;100.00;101026.97;4917320;29;20028;-85
2023/08/28 05:33:56;;;;;;;12.07;9.00;;;;;;;12.45;100.00;101018.34;4901121;29;20042;-87
2023/08/28 05:36:22;;;;;;;14.30;9.37;;;;;;;12.48;100.00;101019.81;4917303;29;20288;-87
2023/08/28 05:38:47;;;;;;;11.00;8.83;;;;;;;12.47;100.00;101016.22;4917478;29;20032;-86
2023/08/28 05:41:12;;;;;;;11.00;9.07;;;;;;;12.48;100.00;101009.75;4901285;29;20079;-86
2023/08/28 05:43:38;;;;;;;11.00;9.17;;;;;;;12.49;100.00;101013.28;4884852;29;20048;-85
2023/08/28 05:46:03;;;;;;;13.00;9.73;;;;;;;12.46;100.00;101009.97;4900767;29;20032;-87
2023/08/28 05:48:28;;;;;;;11.65;9.35;;;;;;;12.50;100.00;101006.78;4900463;29;20043;-88
2023/08/28 05:50:54;;;;;;;16.53;10.10;;;;;;;12.50;100.00;101012.22;4900209;29;20036;-90
2023/08/28 05:53:19;;;;;;;16.70;10.20;;;;;;;12.53;100.00;101020.78;4885179;29;20040;-87
2023/08/28 05:55:45;;;;;;;13.17;9.67;;;;;;;12.57;100.00;101018.44;4900351;29;20078;-85
2023/08/28 05:58:10;;;;;;;15.48;10.25;;;;;;;12.59;100.00;101029.94;4901126;29;20024;-86
2023/08/28 06:00:36;;;;;;;14.30;10.47;;;;;;;12.59;100.00;101022.63;4917695;29;20036;-86
2023/08/28 06:03:01;;;;;;;12.07;10.10;;;;;;;12.62;100.00;101026.75;4884768;29;20449;-85
2023/08/28 06:05:27;;;;;;;12.00;9.97;;;;;;;12.63;100.00;101017.53;4900711;29;20056;-85
2023/08/28 06:07:52;;;;;;;13.30;9.70;;;;;;;12.68;100.00;101022.31;4884743;29;20036;-85
2023/08/28 06:10:19;;;;;;;13.47;9.87;;;;;;;12.69;100.00;101027.53;4916899;29;20036;-85
2023/08/28 06:12:46;;;;;;;11.32;9.35;;;;;;;12.69;100.00;101022.09;4900578;29;20496;-84
2023/08/28 06:15:14;;;;;;;12.38;9.65;;;;;;;12.75;100.00;101021.19;4917448;29;20020;-85
2023/08/28 06:17:40;;;;;;;12.10;10.20;;;;;;;12.77;100.00;101018.22;4900912;29;20029;-85
2023/08/28 06:20:11;;;;;;;13.43;10.48;;;;;;;12.82;100.00;101018.41;4916830;29;20168;-85
2023/08/28 06:22:38;;;;;;;14.43;10.23;;;;;;;12.89;100.00;101018.31;4900186;29;20040;-85
2023/08/28 06:25:04;;;;;;;11.45;10.07;;;;;;;12.91;100.00;101021.66;4869502;29;20032;-85
2023/08/28 06:27:30;;;;;;;14.35;10.63;;;;;;;12.95;100.00;101025.59;4884487;29;20115;-86
2023/08/28 06:29:55;;;;;;;16.40;11.90;;;;;;;13.00;100.00;101023.00;4900066;29;20036;-86
2023/08/28 06:32:21;;;;;;;13.87;11.03;;;;;;;13.08;100.00;101027.31;4916702;29;20062;-88
2023/08/28 06:34:46;;;;;;;15.53;11.23;;;;;;;13.20;100.00;101033.69;4917294;29;20047;-86
2023/08/28 06:37:11;;;;;;;23.23;11.37;;;;;;;13.24;100.00;101036.75;4888278;29;20044;-87
2023/08/28 06:39:37;;;;;;;15.87;10.73;;;;;;;13.29;100.00;101034.22;4920540;29;20036;-85
2023/08/28 06:42:02;;;;;;;13.65;11.20;;;;;;;13.42;100.00;101033.22;4872395;29;20127;-85
2023/08/28 06:44:28;;;;;;;12.90;10.50;;;;;;;13.57;100.00;101036.38;4887725;29;20473;-85
2023/08/28 06:46:53;;;;;;;15.13;10.77;;;;;;;13.74;100.00;101033.81;4887841;29;20043;-85
2023/08/28 06:49:19;;;;;;;12.80;10.83;;;;;;;13.93;100.00;101028.31;4920233;29;20107;-85
2023/08/28 06:51:46;;;;;;;12.57;9.98;;;;;;;14.11;100.00;101032.84;4888030;29;20428;-85
2023/08/28 06:54:11;;;;;;;14.50;10.33;;;;;;;14.25;100.00;101034.31;4920306;29;20114;-85
2023/08/28 06:56:36;;;;;;;12.30;9.55;;;;;;;14.41;100.00;101042.84;4903416;29;20051;-85
2023/08/28 06:59:02;;;;;;;10.33;8.60;;;;;;;14.51;100.00;101046.69;4903598;29;20119;-85
2023/08/28 07:01:27;;;;;;;11.00;8.93;;;;;;;14.59;100.00;101040.03;4902881;29;20076;-85
2023/08/28 07:03:53;;;;;;;13.13;8.70;;;;;;;14.64;100.00;101047.53;4903213;29;20044;-85
2023/08/28 07:06:18;;;;;;;11.20;9.30;;;;;;;14.67;100.00;101053.34;4887557;29;20028;-85
2023/08/28 07:08:44;;;;;;;11.82;9.45;;;;;;;14.68;100.00;101056.91;4920254;29;20107;-85
2023/08/28 07:11:12;;;;;;;9.43;8.30;;;;;;;14.68;100.00;101054.19;4903850;29;20131;-85
2023/08/28 07:13:37;;;;;;;12.07;8.77;;;;;;;14.67;100.00;101056.06;4920247;29;20032;-86
2023/08/28 07:16:03;;;;;;;11.23;8.60;;;;;;;14.72;100.00;101066.31;4903821;29;20032;-86
2023/08/28 07:18:31;;;;;;;10.90;8.20;;;;;;;14.77;100.00;101071.03;4903084;29;20036;-85
2023/08/28 07:20:57;;;;;;;10.20;8.70;;;;;;;14.86;100.00;101072.34;4902986;29;20091;-86
2023/08/28 07:23:25;;;;;;;9.43;8.40;;;;;;;14.96;100.00;101069.03;4902773;29;20032;-86
2023/08/28 07:25:50;;;;;;;10.67;8.90;;;;;;;15.05;100.00;101070.31;4903432;29;20058;-85
2023/08/28 07:34:47;;;;;;;11.20;8.03;;;;;;;15.61;100.00;101051.50;4889304;29;20039;-86
2023/08/28 07:37:12;;;;;;;10.35;7.60;;;;;;;15.83;100.00;101048.94;4902717;29;20393;-85
2023/08/28 07:39:38;;;;;;;11.03;7.10;;;;;;;16.09;100.00;101042.00;4902588;29;20036;-86
2023/08/28 07:42:03;;;;;;;8.80;6.87;;;;;;;16.36;100.00;101051.44;4919167;29;20039;-86
2023/08/28 07:44:32;;;;;;;8.73;7.10;;;;;;;16.62;100.00;101042.56;4902685;29;20032;-85
2023/08/28 07:46:57;;;;;;;9.30;6.20;;;;;;;16.89;100.00;101052.00;4886807;29;20119;-86
2023/08/28 07:49:25;;;;;;;9.77;6.95;;;;;;;17.06;100.00;101050.03;4902758;29;20098;-89
2023/08/28 07:51:51;;;;;;;7.83;6.23;;;;;;;17.25;100.00;101047.81;4902866;29;20039;-87
2023/08/28 07:54:16;;;;;;;8.40;6.32;;;;;;;17.56;100.00;101055.59;4919517;29;20100;-87
2023/08/28 07:56:42;;;;;;;9.53;7.00;;;;;;;17.69;100.00;101052.44;4919005;29;20036;-87
2023/08/28 07:59:07;;;;;;;9.73;6.20;;;;;;;17.82;100.00;101051.19;4919133;29;20036;-86
2023/08/28 08:01:33;;;;;;;11.83;6.80;;;;;;;18.00;100.00;101055.53;4902246;29;20062;-92
2023/08/28 08:03:58;;;;;;;8.68;6.68;;;;;;;18.16;100.00;101043.59;4902111;29;20051;-89
2023/08/28 08:06:31;;;;;;;9.93;6.40;;;;;;;18.27;100.00;101051.91;4919031;29;20040;-89
2023/08/28 08:08:59;;;;;;;8.52;6.60;;;;;;;18.35;100.00;101045.94;4901603;29;20044;-91
2023/08/28 08:11:24;;;;;;;7.10;6.15;;;;;;;18.49;100.00;101054.56;4919202;29;20043;-89
2023/08/28 08:13:53;;;;;;;8.53;6.43;;;;;;;18.53;100.00;101052.94;4902896;29;20381;-89
2023/08/28 08:16:21;;;;;;;6.90;6.20;;;;;;;18.54;100.00;101051.84;4886280;29;20032;-89
2023/08/28 08:18:49;;;;;;;7.17;5.90;;;;;;;18.50;100.00;101046.06;4901721;29;20043;-89
2023/08/28 08:21:15;;;;;;;9.93;5.70;;;;;;;18.39;100.00;101055.31;4902584;29;20028;-91
2023/08/28 08:23:45;;;;;;;6.13;5.22;;;;;;;18.27;100.00;101046.44;4902620;29;20028;-91
2023/08/28 08:26:11;;;;;;;10.10;5.40;;;;;;;18.19;100.00;101050.50;4902204;29;20032;-91
2023/08/28 08:28:38;;;;;;;5.70;5.20;;;;;;;18.21;100.00;101056.53;4902293;29;20374;-90
2023/08/28 08:31:07;;;;;;;6.45;5.20;;;;;;;18.35;100.00;101056.91;4887321;29;20032;-91
2023/08/28 08:33:33;;;;;;;9.77;5.70;;;;;;;18.40;100.00;101057.78;4901425;29;20115;-89
2023/08/28 08:35:59;;;;;;;6.10;5.20;;;;;;;18.52;100.00;101056.78;4901482;29;20484;-89
2023/08/28 08:38:44;;;;;;;7.50;5.68;;;;;;;18.58;100.00;101063.97;4901543;29;20039;-89
2023/08/28 08:41:10;;;;;;;8.10;6.20;;;;;;;18.62;100.00;101067.03;4901879;29;20036;-88
2023/08/28 08:43:35;;;;;;;10.17;6.20;;;;;;;18.62;100.00;101073.34;4901335;29;20035;-89
2023/08/28 08:46:09;;;;;;;9.20;5.40;;;;;;;18.50;100.00;101075.44;4901309;29;20032;-89
2023/08/28 08:48:36;;;;;;;8.93;6.13;;;;;;;18.67;100.00;101070.59;4901855;29;20095;-89
2023/08/28 08:51:04;;;;;;;7.55;4.97;;;;;;;18.93;99.94;101068.06;4901421;29;20035;-92
2023/08/28 08:54:07;;;;;;;6.28;4.88;;;;;;;19.25;99.87;101070.72;4901042;29;20032;-87
2023/08/28 08:56:33;;;;;;;5.45;4.50;;;;;;;19.42;96.72;101066.91;4901088;29;20032;-88
2023/08/28 08:59:00;;;;;;;5.33;4.00;;;;;;;19.62;93.28;101068.91;4916994;29;20083;-90
2023/08/28 09:01:28;;;;;;;5.80;4.57;;;;;;;19.63;92.62;101063.16;4918006;29;20043;-90
2023/08/28 09:03:58;;;;;;;5.53;4.40;;;;;;;19.73;92.39;101067.84;4900811;29;20040;-90
2023/08/28 09:06:30;;;;;;;6.47;4.50;;;;;;;19.84;91.97;101074.22;4901002;29;20028;-89
2023/08/28 09:09:00;;;;;;;4.63;4.22;;;;;;;20.02;91.66;101066.53;4900860;29;20032;-91
2023/08/28 09:11:28;;;;;;;4.40;3.13;;;;;;;20.04;89.90;101065.16;4901715;29;20461;-91
2023/08/28 09:13:54;;;;;;;5.68;3.60;;;;;;;20.25;88.26;101065.19;4900776;29;20167;-90
2023/08/28 09:16:19;;;;;;;3.70;3.40;;;;;;;20.38;87.00;101050.03;4900833;29;20118;-90
2023/08/28 09:18:48;;;;;;;3.15;2.90;;;;;;;20.73;85.05;101049.19;4901082;29;20469;-90
2023/08/28 09:21:20;;;;;;;4.57;3.03;;;;;;;20.90;84.15;101048.84;4900901;29;20032;-90
2023/08/28 09:23:51;;;;;;;3.28;2.85;;;;;;;21.33;81.62;101043.75;4900901;29;20028;-90
2023/08/28 09:26:21;;;;;;;5.88;3.35;;;;;;;21.71;80.81;101054.34;4901293;29;20038;-91
2023/08/28 09:29:04;;;;;;;3.22;2.80;;;;;;;21.96;79.73;101052.53;4917812;29;20047;-91
2023/08/28 09:31:32;;;;;;;5.88;2.60;;;;;;;22.11;76.45;101054.34;4885749;29;20032;-91
2023/08/28 09:34:03;;;;;;;2.80;2.40;;;;;;;22.33;74.73;101056.69;4900832;29;20051;-90
2023/08/28 09:36:32;;;;;;;3.58;2.08;;;;;;;22.32;72.82;101053.09;4900849;29;20465;-90
2023/08/28 09:39:00;;;;;;;2.83;2.42;;;;;;;22.46;73.02;101055.19;4901080;29;20377;-90
2023/08/28 09:41:55;;;;;;;2.90;1.88;;;;;;;22.80;77.94;101057.06;4900626;29;20059;-90
2023/08/28 09:44:25;;;;;;;3.55;2.75;;;;;;;22.99;71.79;101066.25;4880326;29;20040;-90
2023/08/28 09:46:50;;;;;;;3.63;2.17;;;;;;;22.97;69.60;101062.13;4885350;29;20130;-90
2023/08/28 09:49:23;;;;;;;4.13;2.28;;;;;;;22.64;71.79;101059.97;4901369;29;20071;-91
2023/08/28 09:51:56;;;;;;;3.45;2.47;;;;;;;22.87;70.84;101055.59;4885888;29;20040;-90
2023/08/28 09:54:25;;;;;;;4.20;2.00;;;;;;;22.99;71.80;101068.19;4900538;29;20127;-90
2023/08/28 09:56:52;;;;;;;3.53;2.45;;;;;;;23.09;70.37;101065.28;4917251;29;20499;-90
2023/08/28 09:59:20;;;;;;;3.38;2.55;;;;;;;23.03;69.12;101066.47;4900237;29;20036;-89
2023/08/28 10:01:50;;;;;;;3.30;2.70;;;;;;;22.81;69.84;101067.84;4917631;29;20063;-92
2023/08/28 10:04:19;;;;;;;3.55;2.97;;;;;;;22.99;69.54;101069.03;4900614;29;20040;-90
2023/08/28 10:06:51;;;;;;;3.30;2.20;;;;;;;23.51;67.61;101055.38;4900253;29;20032;-88
2023/08/28 10:09:19;;;;;;;4.93;2.33;;;;;;;23.84;66.52;101061.00;4900162;29;20086;-89
2023/08/28 10:11:46;;;;;;;4.22;2.28;;;;;;;24.11;64.83;101062.28;4903678;29;20028;-89
2023/08/28 10:14:13;;;;;;;4.35;2.90;;;;;;;24.12;64.69;101055.63;4904163;29;20047;-90
2023/08/28 10:16:44;;;;;;;3.92;2.45;;;;;;;24.01;64.10;101037.53;4904333;29;20032;-89
2023/08/28 10:19:18;;;;;;;2.97;2.07;;;;;;;23.70;65.54;101054.59;4904133;29;20035;-89
2023/08/28 10:21:45;;;;;;;4.07;2.53;;;;;;;23.37;64.97;101046.16;4903666;29;20107;-89
2023/08/28 10:24:12;;;;;;;2.40;2.20;;;;;;;23.37;62.73;101038.69;4904085;29;20032;-89
2023/08/28 10:26:40;;;;;;;2.75;1.80;;;;;;;23.88;64.46;101050.19;4903986;29;20087;-89
2023/08/28 10:29:17;;;;;;;3.10;1.63;;;;;;;24.36;63.13;101044.44;4920737;29;20028;-89
2023/08/28 10:31:44;;;;;;;1.80;1.53;;;;;;;24.56;60.82;101040.44;4903963;29;20062;-89
2023/08/28 10:34:11;;;;;;;2.95;1.83;;;;;;;25.04;59.74;101048.44;4903712;29;20083;-88
2023/08/28 10:36:42;;;;;;;2.38;1.60;;;;;;;24.95;58.05;101052.22;4903424;29;20039;-89
2023/08/28 10:39:09;;;;;;;2.75;1.88;;;;;;;24.34;59.43;101041.97;4920569;29;20040;-88
2023/08/28 10:41:37;;;;;;;2.58;1.80;;;;;;;23.84;58.51;101049.94;4903493;29;20032;-89
2023/08/28 10:44:09;;;;;;;4.23;2.10;;;;;;;23.55;60.53;101050.06;4904083;29;20032;-89
2023/08/28 10:46:35;;;;;;;2.67;1.70;;;;;;;23.63;60.80;101053.00;4903774;29;20028;-89
2023/08/28 10:49:05;;;;;;;3.00;2.70;;;;;;;23.54;62.05;101048.44;4903053;29;20025;-89
2023/08/28 10:51:37;;;;;;;3.00;2.40;;;;;;;23.58;62.93;101046.72;4903495;29;20028;-89
2023/08/28 10:54:08;;;;;;;3.13;2.72;;;;;;;23.40;63.51;101043.63;4903787;29;20043;-89
2023/08/28 10:56:38;;;;;;;3.83;3.03;;;;;;;23.15;63.26;101043.94;4903308;29;20028;-91
2023/08/28 10:59:27;;;;;;;5.90;2.88;;;;;;;22.95;65.93;101043.88;4903874;29;20028;-89
2023/08/28 11:02:00;;;;;;;4.78;3.20;;;;;;;22.93;65.67;101048.06;4920158;29;20050;-88
2023/08/28 11:04:35;;;;;;;3.95;3.15;;;;;;;23.08;65.12;101055.38;4903906;29;20038;-90
2023/08/28 11:07:02;;;;;;;3.00;2.70;;;;;;;23.27;65.39;101039.66;4888531;29;20485;-89
2023/08/28 11:09:27;;;;;;;3.10;2.77;;;;;;;23.73;64.20;101045.69;4919998;29;20028;-89
2023/08/28 11:12:16;;;;;;;2.67;2.47;;;;;;;24.37;64.03;101039.69;4903710;29;20099;-91
2023/08/28 11:14:59;;;;;;;2.80;2.50;;;;;;;25.17;59.00;101034.84;4888046;29;20070;-90
2023/08/28 11:17:25;;;;;;;2.65;2.22;;;;;;;25.84;54.85;101034.22;4903447;29;20036;-90
2023/08/28 11:19:54;;;;;;;3.22;1.90;;;;;;;26.18;54.94;101032.88;4902827;29;20477;-91
2023/08/28 11:22:47;;;;;;;4.40;2.80;;;;;;;26.27;55.11;101028.16;4901774;29;20088;-90
2023/08/28 11:25:14;;;;;;;2.42;1.60;;;;;;;25.51;53.58;101026.09;4903724;29;20046;-90